Time;durP1;ratioP1;P1;durP2;ratioP2;P2;SDS_P1;SDS_P2;PMS_P1;PMS_P2;Temp;Humidity;BMP_temperature;BMP_pressure;BME280_temperature;BME280_humidity;BME280_pressure;Samples;Min_cycle;Max_cycle;Signal;HPM_P1;HPM_P2
2022/09/18 00:02:01;;;;;;;10.10;4.28;;;8.90;99.90;;;;;;5111823;27;20404;-69
2022/09/18 00:04:27;;;;;;;8.93;4.72;;;8.90;99.90;;;;;;5090310;28;20023;-70
2022/09/18 00:06:53;;;;;;;8.88;4.47;;;8.80;99.90;;;;;;5110854;27;20484;-70
2022/09/18 00:09:18;;;;;;;9.30;4.70;;;8.80;99.90;;;;;;5121488;27;20046;-69
2022/09/18 00:11:46;;;;;;;9.38;4.60;;;8.70;99.90;;;;;;5101337;28;20036;-70
2022/09/18 00:14:16;;;;;;;10.82;4.65;;;8.70;99.90;;;;;;5110884;28;20040;-69
2022/09/18 00:16:42;;;;;;;7.65;4.47;;;8.70;99.90;;;;;;5104287;28;20050;-69
2022/09/18 00:19:08;;;;;;;8.82;4.40;;;8.70;99.90;;;;;;5102252;28;20036;-71
2022/09/18 00:21:36;;;;;;;7.50;4.22;;;8.70;99.90;;;;;;5072243;28;20534;-69
2022/09/18 00:24:03;;;;;;;7.63;3.78;;;8.60;99.90;;;;;;5084603;28;20031;-70
2022/09/18 00:26:29;;;;;;;8.27;4.40;;;8.70;99.90;;;;;;5111326;27;20030;-70
2022/09/18 00:28:57;;;;;;;8.68;4.70;;;8.70;99.90;;;;;;5110786;28;20067;-70
2022/09/18 00:31:28;;;;;;;8.93;4.18;;;8.70;99.90;;;;;;5092121;28;20053;-70
2022/09/18 00:33:54;;;;;;;8.10;3.90;;;8.70;99.90;;;;;;5110767;28;20031;-69
2022/09/18 00:36:21;;;;;;;7.10;4.60;;;8.60;99.90;;;;;;5080146;28;20032;-70
2022/09/18 00:38:47;;;;;;;9.75;4.45;;;8.60;99.90;;;;;;5103581;28;20166;-69
2022/09/18 00:41:26;;;;;;;9.10;4.60;;;8.70;99.90;;;;;;5089282;28;20070;-69
2022/09/18 00:43:53;;;;;;;9.20;3.70;;;8.70;99.90;;;;;;5091858;28;20054;-70
2022/09/18 00:46:35;;;;;;;11.75;4.18;;;8.70;99.90;;;;;;5090874;28;20028;-70
2022/09/18 00:49:12;;;;;;;8.38;3.08;;;8.80;99.90;;;;;;5090856;28;20569;-70
2022/09/18 00:51:39;;;;;;;7.78;3.53;;;8.90;99.90;;;;;;5104285;28;20046;-70
2022/09/18 00:54:29;;;;;;;5.70;2.65;;;8.90;99.90;;;;;;5104490;28;20040;-69
2022/09/18 00:57:00;;;;;;;6.38;2.55;;;9.00;99.90;;;;;;5105124;28;20026;-69
2022/09/18 00:59:28;;;;;;;7.43;2.50;;;9.10;99.90;;;;;;5110205;27;20023;-71
2022/09/18 01:01:55;;;;;;;7.75;2.90;;;9.20;99.90;;;;;;5090516;27;20114;-70
2022/09/18 01:04:21;;;;;;;5.00;2.40;;;9.20;99.90;;;;;;5088559;28;20036;-70
2022/09/18 01:06:57;;;;;;;6.57;2.78;;;9.20;99.90;;;;;;5108861;28;20120;-70
2022/09/18 01:09:33;;;;;;;5.80;2.60;;;9.30;99.90;;;;;;5104499;28;20035;-70
2022/09/18 01:12:19;;;;;;;6.57;2.40;;;9.30;99.90;;;;;;5111194;27;20126;-70
2022/09/18 01:14:53;;;;;;;4.88;2.38;;;9.30;99.90;;;;;;5122209;27;20024;-70
2022/09/18 01:17:37;;;;;;;5.68;2.53;;;9.30;99.90;;;;;;5108328;28;20401;-69
2022/09/18 01:20:12;;;;;;;7.03;2.50;;;9.30;99.90;;;;;;5113566;27;20125;-70
2022/09/18 01:23:03;;;;;;;6.25;2.60;;;9.30;99.90;;;;;;5096959;27;20400;-70
2022/09/18 01:26:02;;;;;;;5.88;2.92;;;9.30;99.90;;;;;;5129685;27;20030;-70
2022/09/18 01:28:28;;;;;;;4.75;2.40;;;9.30;99.90;;;;;;5125271;27;20088;-69
2022/09/18 01:30:59;;;;;;;7.35;2.67;;;9.30;99.90;;;;;;5121863;27;20058;-70
2022/09/18 01:33:34;;;;;;;4.78;2.38;;;9.30;99.90;;;;;;5092089;28;20039;-70
2022/09/18 01:36:05;;;;;;;5.95;2.40;;;9.30;99.90;;;;;;5108356;28;20028;-71
2022/09/18 01:39:00;;;;;;;5.63;2.42;;;9.20;99.90;;;;;;5110517;27;20035;-69
2022/09/18 01:41:28;;;;;;;6.70;2.60;;;9.30;99.90;;;;;;5108409;28;20051;-70
2022/09/18 01:44:02;;;;;;;6.75;2.33;;;9.30;99.90;;;;;;5095232;28;20055;-71
2022/09/18 01:46:29;;;;;;;7.68;2.22;;;9.20;99.90;;;;;;5114038;27;20085;-70
2022/09/18 01:49:05;;;;;;;7.03;2.50;;;9.30;99.90;;;;;;5107900;28;20138;-69
2022/09/18 01:51:56;;;;;;;6.15;2.15;;;9.30;99.90;;;;;;5081669;28;20067;-70
2022/09/18 01:54:29;;;;;;;6.88;2.25;;;9.20;99.90;;;;;;5090631;28;20035;-69
2022/09/18 01:57:03;;;;;;;7.38;2.40;;;9.20;99.90;;;;;;5122463;27;20469;-69
2022/09/18 01:59:38;;;;;;;5.80;2.42;;;9.20;99.90;;;;;;5127686;27;20043;-72
2022/09/18 02:02:10;;;;;;;5.82;2.38;;;9.20;99.90;;;;;;5125286;27;20032;-69
2022/09/18 02:04:39;;;;;;;5.75;2.30;;;9.10;99.90;;;;;;5100360;27;20085;-70
2022/09/18 02:07:34;;;;;;;5.20;2.67;;;9.10;99.90;;;;;;5103534;28;20067;-70
2022/09/18 02:10:00;;;;;;;7.03;2.63;;;9.10;99.90;;;;;;5106439;28;20628;-70
2022/09/18 02:12:28;;;;;;;8.23;2.50;;;9.10;99.90;;;;;;5109980;27;20560;-69
2022/09/18 02:15:00;;;;;;;6.47;2.20;;;9.00;99.90;;;;;;5096957;28;20059;-71
2022/09/18 02:17:44;;;;;;;4.28;2.10;;;9.00;99.90;;;;;;5086783;28;20023;-69
2022/09/18 02:20:19;;;;;;;4.20;2.13;;;9.00;99.90;;;;;;5100395;28;20031;-70
2022/09/18 02:22:47;;;;;;;4.72;2.17;;;9.10;99.90;;;;;;5106364;28;20093;-71
2022/09/18 02:25:18;;;;;;;5.40;2.28;;;9.00;99.90;;;;;;5089843;28;20036;-70
2022/09/18 02:27:45;;;;;;;5.97;2.33;;;9.10;99.90;;;;;;5107493;28;20043;-69
2022/09/18 02:30:11;;;;;;;6.15;2.20;;;9.10;99.90;;;;;;5089340;28;20122;-69
2022/09/18 02:32:38;;;;;;;6.20;2.30;;;9.10;99.90;;;;;;5089147;28;20027;-70
2022/09/18 02:35:07;;;;;;;4.72;2.17;;;9.10;99.90;;;;;;5086799;28;20031;-70
2022/09/18 02:37:43;;;;;;;4.27;2.20;;;9.10;99.90;;;;;;5099996;28;20397;-70
2022/09/18 02:40:12;;;;;;;6.68;2.40;;;9.10;99.90;;;;;;5089423;28;20711;-70
2022/09/18 02:42:51;;;;;;;5.88;2.20;;;9.10;99.90;;;;;;5108346;28;20568;-69
2022/09/18 02:45:38;;;;;;;8.05;2.42;;;9.00;99.90;;;;;;5100497;28;20019;-69
2022/09/18 02:48:29;;;;;;;4.72;2.47;;;9.00;99.90;;;;;;5107376;28;20162;-70
2022/09/18 02:51:35;;;;;;;4.65;2.10;;;9.00;99.90;;;;;;5085899;28;20039;-69
2022/09/18 02:54:06;;;;;;;4.20;2.03;;;9.00;99.90;;;;;;5101858;28;20043;-71
2022/09/18 02:56:46;;;;;;;7.30;2.30;;;9.00;99.90;;;;;;5100116;28;20123;-69
2022/09/18 02:59:15;;;;;;;4.90;2.22;;;9.00;99.90;;;;;;5107988;27;20031;-69
2022/09/18 03:01:44;;;;;;;6.30;2.35;;;9.00;99.90;;;;;;5106761;28;20118;-69
2022/09/18 03:04:18;;;;;;;9.13;2.40;;;8.90;99.90;;;;;;5088663;28;20042;-70
2022/09/18 03:06:43;;;;;;;5.72;2.22;;;8.90;99.90;;;;;;5107212;28;20114;-70
2022/09/18 03:09:09;;;;;;;7.15;2.30;;;8.90;99.90;;;;;;5107215;28;20126;-69
2022/09/18 03:11:35;;;;;;;9.38;2.47;;;8.90;99.90;;;;;;5107392;28;20031;-70
2022/09/18 03:14:02;;;;;;;6.30;2.35;;;8.90;99.90;;;;;;5103907;28;20100;-70
2022/09/18 03:16:27;;;;;;;5.53;2.45;;;8.80;99.90;;;;;;5093861;28;20031;-70
2022/09/18 03:18:53;;;;;;;6.35;2.35;;;8.90;99.90;;;;;;5112048;28;20031;-69
2022/09/18 03:21:19;;;;;;;7.10;2.28;;;8.80;99.90;;;;;;5093133;28;20043;-70
2022/09/18 03:23:45;;;;;;;5.53;2.20;;;8.80;99.90;;;;;;5111079;28;20128;-69
2022/09/18 03:26:11;;;;;;;5.35;2.40;;;8.80;99.90;;;;;;5112024;28;20031;-70
2022/09/18 03:28:36;;;;;;;5.05;2.13;;;8.80;99.90;;;;;;5123234;27;20504;-69
2022/09/18 03:31:02;;;;;;;7.65;2.40;;;8.80;99.90;;;;;;5094538;28;20040;-70
2022/09/18 03:33:28;;;;;;;7.40;2.50;;;8.90;99.90;;;;;;5116024;27;20055;-69
2022/09/18 03:35:53;;;;;;;4.75;2.22;;;8.80;99.90;;;;;;5111662;28;20031;-70
2022/09/18 03:38:19;;;;;;;4.57;2.33;;;8.90;99.90;;;;;;5110732;28;20443;-69
2022/09/18 03:40:45;;;;;;;4.63;2.13;;;8.80;99.90;;;;;;5110797;28;20066;-69
2022/09/18 03:43:11;;;;;;;6.28;2.20;;;8.80;99.90;;;;;;5111323;28;20031;-70
2022/09/18 03:45:36;;;;;;;5.32;2.20;;;8.90;99.90;;;;;;5111177;28;20031;-70
2022/09/18 03:48:03;;;;;;;7.07;2.28;;;8.80;99.90;;;;;;5089223;28;20473;-70
2022/09/18 03:50:28;;;;;;;5.65;2.40;;;8.80;99.90;;;;;;5089836;28;20353;-70
2022/09/18 03:52:54;;;;;;;8.23;2.33;;;8.80;99.90;;;;;;5090647;28;20548;-69
2022/09/18 03:55:21;;;;;;;4.32;1.95;;;8.80;99.90;;;;;;5090579;28;20123;-70
2022/09/18 03:57:47;;;;;;;4.43;1.92;;;8.80;99.90;;;;;;5090931;28;20035;-71
2022/09/18 04:00:13;;;;;;;5.32;2.08;;;8.80;99.90;;;;;;5089856;28;20036;-69
2022/09/18 04:02:39;;;;;;;6.25;2.10;;;8.80;99.90;;;;;;5089920;28;20040;-69
2022/09/18 04:05:05;;;;;;;5.40;2.00;;;8.80;99.90;;;;;;5091572;28;20115;-69
2022/09/18 04:07:31;;;;;;;5.90;2.22;;;8.80;99.90;;;;;;5089938;28;20028;-70
2022/09/18 04:09:57;;;;;;;6.03;2.20;;;8.70;99.90;;;;;;5090143;28;20044;-70
2022/09/18 04:12:24;;;;;;;4.88;2.10;;;8.70;99.90;;;;;;5090735;28;20032;-69
2022/09/18 04:14:49;;;;;;;5.05;2.00;;;8.80;99.90;;;;;;5090702;28;20028;-70
2022/09/18 04:17:15;;;;;;;3.92;1.95;;;8.80;99.90;;;;;;5089470;28;20038;-69
2022/09/18 04:19:41;;;;;;;4.45;1.98;;;8.70;99.90;;;;;;5089632;28;20070;-70
2022/09/18 04:22:07;;;;;;;8.07;1.98;;;8.80;99.90;;;;;;5092600;28;20035;-70
2022/09/18 04:24:34;;;;;;;4.63;1.92;;;8.70;99.90;;;;;;5090237;28;20032;-70
2022/09/18 04:26:59;;;;;;;4.72;1.67;;;8.70;99.90;;;;;;5089724;28;20028;-72
2022/09/18 04:29:25;;;;;;;3.58;1.60;;;8.80;99.90;;;;;;5087231;28;20040;-70
2022/09/18 04:31:51;;;;;;;5.63;2.20;;;8.80;99.90;;;;;;5088878;28;20090;-70
2022/09/18 04:34:16;;;;;;;3.13;1.48;;;8.80;99.90;;;;;;5086650;28;20028;-69
2022/09/18 04:36:42;;;;;;;4.65;1.95;;;8.80;99.90;;;;;;5083431;28;20062;-71
2022/09/18 04:39:07;;;;;;;4.82;1.90;;;8.80;99.90;;;;;;5089117;28;20024;-71
2022/09/18 04:41:33;;;;;;;4.90;2.13;;;8.80;99.90;;;;;;5088006;28;20461;-70
2022/09/18 04:43:59;;;;;;;4.75;1.80;;;8.80;99.90;;;;;;5087566;28;20035;-71
2022/09/18 04:46:24;;;;;;;6.07;1.85;;;8.80;99.90;;;;;;5088262;28;20489;-70
2022/09/18 04:48:50;;;;;;;5.00;1.75;;;8.80;99.90;;;;;;5110712;27;20047;-70
2022/09/18 04:51:16;;;;;;;4.68;1.80;;;8.80;99.90;;;;;;5091592;28;20123;-70
2022/09/18 04:53:41;;;;;;;5.03;1.80;;;8.80;99.90;;;;;;5090874;28;20666;-70
2022/09/18 04:56:07;;;;;;;4.10;1.60;;;8.80;99.90;;;;;;5090963;28;20486;-70
2022/09/18 04:58:33;;;;;;;3.35;1.55;;;8.80;99.90;;;;;;5113053;27;20080;-70
2022/09/18 05:00:58;;;;;;;4.63;1.70;;;8.80;99.90;;;;;;5112488;27;20035;-70
2022/09/18 05:03:24;;;;;;;4.75;1.60;;;8.80;99.90;;;;;;5108448;28;20737;-70
2022/09/18 05:05:50;;;;;;;4.25;1.73;;;8.80;99.90;;;;;;5102381;28;20031;-69
2022/09/18 05:08:16;;;;;;;4.45;1.73;;;8.80;99.90;;;;;;5109247;28;20047;-70
2022/09/18 05:10:42;;;;;;;4.22;1.70;;;8.80;99.90;;;;;;5109613;28;20039;-70
2022/09/18 05:13:09;;;;;;;3.88;1.70;;;8.70;99.90;;;;;;5109256;28;20039;-70
2022/09/18 05:15:34;;;;;;;4.60;1.52;;;8.70;99.90;;;;;;5089004;28;20488;-71
2022/09/18 05:18:02;;;;;;;4.40;2.00;;;8.70;99.90;;;;;;5105647;28;20027;-70
2022/09/18 05:20:29;;;;;;;3.42;1.45;;;8.70;99.90;;;;;;5104486;28;20538;-70
2022/09/18 05:22:55;;;;;;;4.60;1.55;;;8.70;99.90;;;;;;5090424;28;20035;-72
2022/09/18 05:25:22;;;;;;;3.30;1.38;;;8.70;99.90;;;;;;5107752;28;20035;-69
2022/09/18 05:28:01;;;;;;;4.72;1.60;;;8.70;99.90;;;;;;5109293;28;20107;-70
2022/09/18 05:30:28;;;;;;;3.80;1.80;;;8.70;99.90;;;;;;5109448;28;20508;-69
2022/09/18 05:33:01;;;;;;;5.20;2.08;;;8.70;99.90;;;;;;5099351;27;20090;-70
2022/09/18 05:35:29;;;;;;;4.10;1.65;;;8.70;99.90;;;;;;5089165;28;20088;-70
2022/09/18 05:37:55;;;;;;;4.13;1.48;;;8.70;99.90;;;;;;5096986;27;20121;-69
2022/09/18 05:40:23;;;;;;;4.18;1.60;;;8.70;99.90;;;;;;5112674;27;20492;-68
2022/09/18 05:42:51;;;;;;;4.93;1.80;;;8.60;99.90;;;;;;5117282;27;20038;-69
2022/09/18 05:45:17;;;;;;;4.65;1.50;;;8.70;99.90;;;;;;5104645;28;20086;-70
2022/09/18 05:47:56;;;;;;;5.00;1.50;;;8.70;99.90;;;;;;5101147;27;20461;-70
2022/09/18 05:50:23;;;;;;;4.13;1.25;;;8.60;99.90;;;;;;5105792;27;20038;-69
2022/09/18 05:52:59;;;;;;;5.28;1.52;;;8.70;99.90;;;;;;5118736;27;20111;-70
2022/09/18 05:55:25;;;;;;;4.18;1.58;;;8.70;99.90;;;;;;5099261;28;20027;-71
2022/09/18 05:57:52;;;;;;;4.43;1.80;;;8.70;99.90;;;;;;5107508;28;20030;-69
2022/09/18 06:00:18;;;;;;;3.97;1.40;;;8.60;99.90;;;;;;5099429;27;20039;-69
2022/09/18 06:02:51;;;;;;;6.60;1.60;;;8.70;99.90;;;;;;5085776;27;20059;-69
2022/09/18 06:05:17;;;;;;;5.38;1.67;;;8.60;99.90;;;;;;5109316;27;20031;-72
2022/09/18 06:07:43;;;;;;;4.82;1.40;;;8.60;99.90;;;;;;5104347;27;20043;-69
2022/09/18 06:10:08;;;;;;;4.80;1.42;;;8.60;99.90;;;;;;5090474;27;20143;-69
2022/09/18 06:12:34;;;;;;;6.45;1.40;;;8.60;99.90;;;;;;5092508;27;20054;-69
2022/09/18 06:15:00;;;;;;;4.60;1.45;;;8.60;99.90;;;;;;5081205;28;20487;-69
2022/09/18 06:17:25;;;;;;;5.28;1.50;;;8.60;99.90;;;;;;5101487;27;20032;-69
2022/09/18 06:19:51;;;;;;;4.07;1.30;;;8.60;99.90;;;;;;5106790;27;20027;-70
2022/09/18 06:22:16;;;;;;;3.97;1.40;;;8.60;99.90;;;;;;5106915;27;20035;-70
2022/09/18 06:24:42;;;;;;;3.17;1.30;;;8.60;99.90;;;;;;5096999;28;20036;-69
2022/09/18 06:27:08;;;;;;;4.47;1.50;;;8.60;99.90;;;;;;5105809;27;20046;-69
2022/09/18 06:29:33;;;;;;;5.00;1.60;;;8.70;99.90;;;;;;5088429;27;20469;-70
2022/09/18 06:31:59;;;;;;;4.70;1.40;;;8.70;99.90;;;;;;5087718;28;20042;-69
2022/09/18 06:34:24;;;;;;;3.78;1.50;;;8.70;99.90;;;;;;5104735;27;20035;-70
2022/09/18 06:36:50;;;;;;;4.75;1.10;;;8.70;99.90;;;;;;5105706;27;20034;-69
2022/09/18 06:39:16;;;;;;;5.35;1.40;;;8.70;99.90;;;;;;5102724;27;20031;-69
2022/09/18 06:41:41;;;;;;;4.38;1.38;;;8.70;99.90;;;;;;5106398;28;20028;-70
2022/09/18 06:44:07;;;;;;;3.10;1.42;;;8.70;99.90;;;;;;5102914;27;23825;-70
2022/09/18 06:46:33;;;;;;;4.75;1.45;;;8.80;99.90;;;;;;5107030;27;20059;-69
2022/09/18 06:48:59;;;;;;;4.05;1.27;;;8.80;99.90;;;;;;5108305;27;20050;-70
2022/09/18 06:51:24;;;;;;;5.03;1.50;;;8.90;99.90;;;;;;5087025;27;20035;-71
2022/09/18 06:53:50;;;;;;;3.65;1.70;;;9.00;99.90;;;;;;5107935;27;20106;-70
2022/09/18 06:56:15;;;;;;;3.17;1.40;;;9.00;99.90;;;;;;5108287;27;20038;-69
2022/09/18 06:58:41;;;;;;;6.68;1.67;;;9.10;99.90;;;;;;5113080;27;20035;-69
2022/09/18 07:01:07;;;;;;;3.95;1.20;;;9.10;99.90;;;;;;5107470;27;20150;-70
2022/09/18 07:03:32;;;;;;;3.58;1.38;;;9.20;99.90;;;;;;5084265;27;20449;-69
2022/09/18 07:05:58;;;;;;;4.22;1.40;;;9.20;99.90;;;;;;5107658;27;20030;-69
2022/09/18 07:08:24;;;;;;;4.93;1.23;;;9.20;99.90;;;;;;5109070;27;20032;-70
2022/09/18 07:10:49;;;;;;;3.63;1.25;;;9.20;99.90;;;;;;5110679;27;20435;-69
2022/09/18 07:13:15;;;;;;;3.15;1.30;;;9.30;99.90;;;;;;5100512;28;20031;-68
2022/09/18 07:15:41;;;;;;;3.00;1.10;;;9.30;99.90;;;;;;5103523;28;20038;-68
2022/09/18 07:18:08;;;;;;;4.80;1.25;;;9.40;99.90;;;;;;5099145;28;20741;-69
2022/09/18 07:20:34;;;;;;;3.50;1.10;;;9.40;99.90;;;;;;5094741;28;20137;-70
2022/09/18 07:23:00;;;;;;;4.93;1.20;;;9.40;99.90;;;;;;5079543;28;20111;-70
2022/09/18 07:25:28;;;;;;;4.20;1.20;;;9.50;99.90;;;;;;5101126;28;20111;-68
2022/09/18 07:27:54;;;;;;;7.10;1.40;;;9.60;99.90;;;;;;5091583;28;20130;-69
2022/09/18 07:30:20;;;;;;;6.10;1.42;;;9.70;99.90;;;;;;5100923;28;20032;-68
2022/09/18 07:32:46;;;;;;;2.65;1.00;;;9.70;99.90;;;;;;5082689;28;20117;-68
2022/09/18 07:35:12;;;;;;;6.03;1.20;;;9.80;99.90;;;;;;5093902;28;20039;-69
2022/09/18 07:37:38;;;;;;;4.53;1.35;;;9.80;99.90;;;;;;5109629;28;20032;-70
2022/09/18 07:40:06;;;;;;;4.00;1.30;;;10.00;99.90;;;;;;5085894;28;20032;-69
2022/09/18 07:42:31;;;;;;;5.82;1.40;;;10.20;99.90;;;;;;5108045;28;20122;-70
2022/09/18 07:44:57;;;;;;;2.45;1.20;;;10.30;99.90;;;;;;5087665;28;20029;-71
2022/09/18 07:47:26;;;;;;;2.83;1.10;;;10.40;99.90;;;;;;5107268;28;20058;-71
2022/09/18 07:49:52;;;;;;;2.72;1.08;;;10.40;99.90;;;;;;5100454;28;20031;-69
2022/09/18 07:52:18;;;;;;;4.57;1.10;;;10.60;99.90;;;;;;5101766;28;20401;-69
2022/09/18 07:54:43;;;;;;;3.90;1.10;;;10.70;99.90;;;;;;5085819;28;20492;-70
2022/09/18 07:57:09;;;;;;;3.45;1.08;;;10.80;99.90;;;;;;5088352;28;20092;-68
2022/09/18 07:59:34;;;;;;;3.97;1.10;;;10.80;99.90;;;;;;5102672;28;20032;-70
2022/09/18 08:02:00;;;;;;;2.47;1.13;;;11.00;99.90;;;;;;5087786;28;20030;-69
2022/09/18 08:04:26;;;;;;;2.47;1.10;;;11.10;99.90;;;;;;5116443;27;20031;-71
2022/09/18 08:06:52;;;;;;;6.25;1.70;;;11.30;99.90;;;;;;5112355;27;20032;-69
2022/09/18 08:09:19;;;;;;;2.78;1.00;;;11.50;99.90;;;;;;5105011;27;20059;-70
2022/09/18 08:11:44;;;;;;;4.15;1.10;;;11.60;99.90;;;;;;5097922;27;20045;-71
2022/09/18 08:14:11;;;;;;;2.55;1.02;;;11.70;99.90;;;;;;5104096;27;20270;-70
2022/09/18 08:16:36;;;;;;;3.65;0.95;;;11.70;99.90;;;;;;5100756;27;20529;-69
2022/09/18 08:19:02;;;;;;;5.65;1.20;;;11.80;99.90;;;;;;5097782;27;20457;-70
2022/09/18 08:21:31;;;;;;;3.95;1.10;;;11.90;99.90;;;;;;5106574;27;20430;-70
2022/09/18 08:23:57;;;;;;;3.35;1.05;;;12.00;99.90;;;;;;5103527;27;20038;-70
2022/09/18 08:26:22;;;;;;;3.40;1.08;;;12.00;99.90;;;;;;5104104;27;20035;-69
2022/09/18 08:28:48;;;;;;;3.05;1.10;;;12.10;99.90;;;;;;5110780;27;20035;-69
2022/09/18 08:31:14;;;;;;;4.18;1.10;;;12.20;99.90;;;;;;5105647;27;20031;-70
2022/09/18 08:33:39;;;;;;;5.57;1.02;;;12.20;99.90;;;;;;5084532;27;20033;-70
2022/09/18 08:36:05;;;;;;;3.88;1.23;;;12.30;99.90;;;;;;5104456;28;20560;-71
2022/09/18 08:38:31;;;;;;;4.30;1.10;;;12.40;99.90;;;;;;5107811;27;20031;-69
2022/09/18 08:41:29;;;;;;;2.35;1.00;;;12.50;99.90;;;;;;5106832;28;20394;-70
2022/09/18 08:44:00;;;;;;;3.53;1.20;;;12.70;99.90;;;;;;5088134;28;20032;-70
2022/09/18 08:46:34;;;;;;;4.18;1.20;;;12.70;99.90;;;;;;5100920;28;20083;-71
2022/09/18 08:49:29;;;;;;;2.83;1.02;;;12.80;99.90;;;;;;5096232;28;20801;-70
2022/09/18 08:52:11;;;;;;;4.05;1.10;;;12.80;99.90;;;;;;5105849;27;20394;-69
2022/09/18 08:54:39;;;;;;;4.03;1.17;;;12.80;99.90;;;;;;5104885;27;20439;-70
2022/09/18 08:57:28;;;;;;;4.50;1.15;;;12.80;99.90;;;;;;5094507;28;20031;-69
2022/09/18 09:00:01;;;;;;;2.63;1.13;;;12.90;99.90;;;;;;5073023;28;20040;-70
2022/09/18 09:02:46;;;;;;;3.95;1.13;;;13.00;99.90;;;;;;5094627;28;20032;-70
2022/09/18 09:05:15;;;;;;;4.05;1.00;;;13.10;99.90;;;;;;5102691;27;20063;-70
2022/09/18 09:08:08;;;;;;;4.68;1.35;;;13.20;99.90;;;;;;5098917;27;20119;-70
2022/09/18 09:11:06;;;;;;;3.90;1.10;;;13.40;99.90;;;;;;5089291;28;20036;-69
2022/09/18 09:13:43;;;;;;;2.95;1.05;;;13.60;99.90;;;;;;5108082;28;20040;-70
2022/09/18 09:16:17;;;;;;;4.32;1.00;;;13.60;99.90;;;;;;5108560;28;20123;-69
2022/09/18 09:19:00;;;;;;;2.97;1.05;;;13.60;99.90;;;;;;5106795;28;20115;-70
2022/09/18 09:21:38;;;;;;;3.35;1.10;;;13.60;99.90;;;;;;5107562;28;20044;-69
2022/09/18 09:24:03;;;;;;;3.97;0.90;;;13.70;99.90;;;;;;5109546;28;20042;-70
2022/09/18 09:26:31;;;;;;;4.20;1.00;;;13.70;99.90;;;;;;5109219;28;20035;-70
2022/09/18 09:29:22;;;;;;;3.53;1.73;;;13.90;99.90;;;;;;5109382;28;20085;-71
2022/09/18 09:31:54;;;;;;;5.63;2.75;;;14.30;99.90;;;;;;5073646;28;20054;-70
2022/09/18 09:34:26;;;;;;;5.63;1.63;;;14.40;99.90;;;;;;5108625;28;20043;-70
2022/09/18 09:36:56;;;;;;;4.60;1.52;;;14.40;99.90;;;;;;5116486;27;20758;-69
2022/09/18 09:39:48;;;;;;;3.05;1.23;;;14.50;99.90;;;;;;5095317;28;20020;-71
2022/09/18 09:42:20;;;;;;;7.95;3.28;;;14.70;99.60;;;;;;5095403;28;20039;-70
2022/09/18 09:45:13;;;;;;;6.53;2.58;;;14.80;99.10;;;;;;5103074;28;20026;-70
2022/09/18 09:48:10;;;;;;;5.15;2.40;;;14.90;98.40;;;;;;5100164;27;20552;-70
2022/09/18 09:50:48;;;;;;;5.68;2.30;;;15.10;97.60;;;;;;5105520;27;20763;-69
2022/09/18 09:53:13;;;;;;;4.72;1.58;;;15.30;96.30;;;;;;5095416;28;20040;-71
2022/09/18 09:56:08;;;;;;;3.70;1.20;;;15.40;95.50;;;;;;5103556;27;20374;-71
2022/09/18 09:58:34;;;;;;;3.55;0.90;;;15.50;95.10;;;;;;5087611;28;20060;-70
2022/09/18 10:01:05;;;;;;;4.25;1.13;;;15.50;94.50;;;;;;5107474;27;20039;-70
2022/09/18 10:03:42;;;;;;;2.80;1.05;;;15.50;94.60;;;;;;5094890;27;20385;-70
2022/09/18 10:06:31;;;;;;;2.72;0.90;;;15.50;95.30;;;;;;5096230;28;20405;-71
2022/09/18 10:09:17;;;;;;;5.03;1.57;;;15.60;94.00;;;;;;5087451;28;20552;-71
2022/09/18 10:11:55;;;;;;;2.72;0.90;;;15.80;94.80;;;;;;5058405;28;20296;-70
2022/09/18 10:14:24;;;;;;;3.85;0.95;;;15.90;92.20;;;;;;5099782;28;20163;-71
2022/09/18 10:16:52;;;;;;;2.00;0.70;;;16.00;91.90;;;;;;5093867;28;20020;-70
2022/09/18 10:19:20;;;;;;;4.85;0.95;;;16.10;90.40;;;;;;5100109;27;20082;-70
2022/09/18 10:21:50;;;;;;;4.90;1.60;;;16.10;90.30;;;;;;5089622;28;20039;-70
2022/09/18 10:24:26;;;;;;;3.72;1.17;;;16.30;90.80;;;;;;5098208;27;20032;-70
2022/09/18 10:27:04;;;;;;;4.32;1.02;;;16.30;87.10;;;;;;5094455;28;20031;-71
2022/09/18 10:29:30;;;;;;;2.67;0.70;;;16.40;85.40;;;;;;5081061;28;20055;-70
2022/09/18 10:31:58;;;;;;;6.10;2.60;;;16.50;84.20;;;;;;5099243;28;20080;-70
2022/09/18 10:34:50;;;;;;;9.95;4.63;;;16.50;79.30;;;;;;5085893;28;20066;-71
2022/09/18 10:37:27;;;;;;;4.28;1.10;;;16.50;80.80;;;;;;5102168;27;20024;-71
2022/09/18 10:39:58;;;;;;;7.50;2.80;;;16.50;79.40;;;;;;5102540;28;20031;-70
2022/09/18 10:42:43;;;;;;;4.38;1.00;;;16.60;79.50;;;;;;5102933;27;20039;-71
2022/09/18 10:45:24;;;;;;;6.00;2.20;;;16.70;80.40;;;;;;5100133;28;20028;-71
2022/09/18 10:48:12;;;;;;;5.07;1.80;;;16.90;79.30;;;;;;5105831;28;20043;-70
2022/09/18 10:50:50;;;;;;;3.40;1.10;;;17.20;77.60;;;;;;5098739;27;20128;-72
2022/09/18 10:53:38;;;;;;;2.35;0.60;;;17.20;77.00;;;;;;5092629;28;20023;-70
2022/09/18 10:56:24;;;;;;;2.05;0.70;;;17.10;74.80;;;;;;5098383;28;20048;-71
2022/09/18 10:58:50;;;;;;;2.22;0.70;;;16.90;74.40;;;;;;5085359;28;20058;-71
2022/09/18 11:01:16;;;;;;;3.30;0.80;;;17.00;74.40;;;;;;5107950;28;20501;-71
2022/09/18 11:03:46;;;;;;;5.00;2.38;;;17.10;74.30;;;;;;5098659;28;20103;-71
2022/09/18 11:06:17;;;;;;;4.13;0.93;;;17.20;73.90;;;;;;5098043;28;20591;-71
2022/09/18 11:08:47;;;;;;;7.78;3.45;;;17.40;73.60;;;;;;5105087;28;20617;-71
2022/09/18 11:11:25;;;;;;;2.70;1.10;;;17.30;72.90;;;;;;5103903;28;20047;-71
2022/09/18 11:13:57;;;;;;;6.10;3.30;;;17.20;73.70;;;;;;5108024;28;20611;-70
2022/09/18 11:16:25;;;;;;;5.18;1.70;;;17.10;72.00;;;;;;5108262;28;20023;-70
2022/09/18 11:19:06;;;;;;;4.07;1.30;;;17.00;72.50;;;;;;5107871;28;20019;-70
2022/09/18 11:21:32;;;;;;;1.52;0.70;;;17.00;72.20;;;;;;5108001;28;20030;-71
2022/09/18 11:24:05;;;;;;;2.20;0.60;;;17.10;72.00;;;;;;5095836;28;20016;-71
2022/09/18 11:26:31;;;;;;;2.13;0.60;;;17.30;72.10;;;;;;5095966;28;20389;-71
2022/09/18 11:29:18;;;;;;;4.07;0.98;;;17.40;72.10;;;;;;5084250;28;20404;-71
2022/09/18 11:32:10;;;;;;;2.50;0.98;;;17.30;70.50;;;;;;5097539;28;20036;-71
2022/09/18 11:34:38;;;;;;;3.35;0.82;;;17.20;72.00;;;;;;5115278;27;20508;-70
2022/09/18 11:37:21;;;;;;;3.05;1.05;;;16.90;71.10;;;;;;5109813;28;20035;-70
2022/09/18 11:39:55;;;;;;;4.47;0.98;;;16.70;72.10;;;;;;5096853;28;20036;-70
2022/09/18 11:42:21;;;;;;;2.97;1.00;;;17.00;71.70;;;;;;5097047;27;20031;-71
2022/09/18 11:44:47;;;;;;;2.75;1.02;;;17.50;72.50;;;;;;5118462;27;20046;-71
2022/09/18 11:47:25;;;;;;;2.30;0.70;;;18.80;66.20;;;;;;5099364;27;20126;-71
2022/09/18 11:50:02;;;;;;;2.75;0.63;;;18.80;65.40;;;;;;5107645;28;20047;-71
2022/09/18 11:52:59;;;;;;;1.65;0.65;;;19.40;63.40;;;;;;5098677;28;20821;-70
2022/09/18 11:55:39;;;;;;;3.63;0.75;;;18.90;63.60;;;;;;5066310;28;20069;-71
2022/09/18 11:58:23;;;;;;;2.22;0.70;;;18.50;64.00;;;;;;5095697;28;20032;-72
2022/09/18 12:01:18;;;;;;;2.42;0.70;;;18.30;65.50;;;;;;5111200;28;20032;-70
2022/09/18 12:04:20;;;;;;;1.58;0.70;;;18.00;66.30;;;;;;5048339;28;20468;-71
2022/09/18 12:07:02;;;;;;;1.88;0.68;;;17.80;67.70;;;;;;5095587;28;20020;-70
2022/09/18 12:09:52;;;;;;;1.83;0.70;;;17.80;67.60;;;;;;5094114;28;20031;-71
2022/09/18 12:12:27;;;;;;;2.58;0.63;;;18.00;66.90;;;;;;5089910;28;20788;-72
2022/09/18 12:15:04;;;;;;;4.30;0.85;;;17.90;65.60;;;;;;5106572;27;20048;-70
2022/09/18 12:17:41;;;;;;;2.25;0.60;;;17.80;65.80;;;;;;5084776;28;20050;-72
2022/09/18 12:20:43;;;;;;;3.72;0.80;;;17.90;66.90;;;;;;5103327;28;20097;-71
2022/09/18 12:23:19;;;;;;;3.08;0.75;;;18.10;66.30;;;;;;5092773;28;20394;-71
2022/09/18 12:26:12;;;;;;;1.67;0.55;;;18.00;65.40;;;;;;5106967;27;20118;-72
2022/09/18 12:29:09;;;;;;;1.92;0.70;;;17.80;64.90;;;;;;5096888;28;20043;-70
2022/09/18 12:31:50;;;;;;;4.28;0.80;;;17.60;65.80;;;;;;5099887;28;20039;-72
2022/09/18 12:34:43;;;;;;;2.20;0.60;;;17.70;66.30;;;;;;5099568;28;20482;-71
2022/09/18 12:37:12;;;;;;;4.32;0.70;;;17.50;65.10;;;;;;5096460;28;20059;-71
2022/09/18 12:40:10;;;;;;;2.80;0.60;;;17.30;67.00;;;;;;5104773;28;20032;-71
2022/09/18 12:43:08;;;;;;;2.13;0.60;;;17.10;65.50;;;;;;5102754;28;20166;-71
2022/09/18 12:45:59;;;;;;;3.38;0.70;;;17.00;65.40;;;;;;5016161;28;20044;-71
2022/09/18 12:48:35;;;;;;;3.60;0.90;;;17.20;67.60;;;;;;5008337;28;20053;-71
2022/09/18 12:51:16;;;;;;;4.50;1.30;;;17.20;66.80;;;;;;5001033;28;20052;-72
2022/09/18 12:53:56;;;;;;;2.22;0.70;;;17.10;66.80;;;;;;4997554;28;20048;-72
2022/09/18 12:56:32;;;;;;;;;;;17.00;67.30;;;;;;5022443;28;20041;-70
2022/09/18 12:59:13;;;;;;;2.15;0.63;;;17.00;66.50;;;;;;5015659;28;19944;-71
2022/09/18 13:02:23;;;;;;;2.67;0.90;;;17.00;67.00;;;;;;5017143;28;20029;-71
2022/09/18 13:05:03;;;;;;;1.92;0.68;;;17.10;67.70;;;;;;4998133;28;20049;-72
2022/09/18 13:07:31;;;;;;;;;;;17.70;66.30;;;;;;5019444;28;20789;-71
2022/09/18 13:10:23;;;;;;;3.03;0.68;;;18.30;65.40;;;;;;5005530;28;19912;-70
2022/09/18 13:13:03;;;;;;;2.10;0.63;;;18.90;62.40;;;;;;5027377;28;20510;-72
2022/09/18 13:15:49;;;;;;;2.05;0.55;;;18.60;61.50;;;;;;5025160;28;20053;-72
2022/09/18 13:18:23;;;;;;;2.20;0.70;;;18.20;62.40;;;;;;5010935;28;20057;-72
2022/09/18 13:20:51;;;;;;;7.60;0.82;;;17.90;63.90;;;;;;5018869;28;20079;-71